Aérodrome :
LOGIN :

S'inscrire | Disclaimer

   EN    FR    IT 

 










Légende :    VFR   VFR Marginal   IFR   IFR Intensif   IFR Très Intensif
Visi : 
Plafond : 
>= 8 km
>= 3000ft
5 à 8 km
1000 à 3000 ft
1500m à 5 km
500 à 1000 ft
800 à 1500m
200 à 500 ft
< 800m
< 200 ft
Symboles :   Orages  Brouillard  Fortes neiges  Fortes précipitations  Vent > 20 kt
SIGMETs :   Divers  Orages  Givrage  Turbulence  Onde Orograph.  Cendres Volcan.







- Altitude de l'aérodrome : 768 ft
- Code IATA : MXP


LIMC - Milano Malpensa

DERNIER METAR :
  • 181750Z 20002KT CAVOK 01/M06 Q1024 NOSIG

METARs EXPIRÉS :
  • 181720Z 19003KT 150V210 CAVOK 01/M07 Q1023 NOSIG
  • 181650Z 15003KT CAVOK 02/M09 Q1023 NOSIG
  • 181620Z 15004KT CAVOK 03/M09 Q1022 NOSIG
  • 181550Z VRB02KT CAVOK 04/M09 Q1022 NOSIG
  • 181520Z 17002KT CAVOK 05/M09 Q1022 NOSIG

TAF TAF LIMC
Valide du 18 à 18h jusqu'au 20 à 00h UTC


181700Z 1818/1924 VRB05KT CAVOK
Pas de NOTAMs connus pour ce terrain.
1 SIGMET publié pour la FIR Milano (LIMM) :
 
Turbulence forte
LIMM SIGMET 2 VALID 181550/181950 LIIP
LIMM MILANO FIR SEV TURB FCST W OF LINE N4643 E01016 - N4316 E00827 FL240/340 MOV SSW NC=



MET'MAP, la Météo Aéronautique d'un coup d'oeil ! - Copyright ORBIFLY Décembre 2007 - Disclaimer

ORBIFLY MET'MAP TEAM :

Programmation & Développement : Alexandra Zaïnal
Conception & Développement : Baudouin d'Aumeries
Co-Programmation & Développement : Marc-Olivier Méhu
Soutien technique & logistique : Manuel Goepfert

Contact : metmap@orbifly.com




SOURCES & CREDITS :

   NOAA